Birmingham, MI

5:00 PM EDT on March 27, 2015 (GMT -0400)
Detroit City | | Change Station
CLOSE
Current Station
Airport
Location: Detroit,
Elevation: 623 ft
Nearby Weather Stations

Elev 623 ft 42.41 °N, 83.01 °W | Updated 7 minutes ago

Overcast
Overcast
27 °F
Feels Like 15 °F
N
16
Wind Variable Wind from North
Gusts 24 mph

Today
High -- | Low -- °F
--% Chance of Precip.
Yesterday
High -- | Low -- °F
Precip. -- in
7:24 AM 7:52 PM
First Quarter, 55% visible
Pressure 30.07 in
Visibility 7.0 miles
Clouds Mostly Cloudy 3400 ft
Overcast 4300 ft
Windchill 15 °F
Dew Point 12 °F
Humidity 53%
Rainfall 0.00 in
Snow Depth Not available.
UV 1 out of 12
Pollen 3.20 out of 12
Air Quality Not available.
Flu Activity Not available.
METAR KDET 272053Z AUTO 01014G21KT 7SM BKN034 OVC043 M03/M11 A3004 RMK AO2 SNE1954 SLP181 P0000 60000 T10281111 53003

More Conditions Fewer Conditions

Pressure 30.07 in
Visibility 7.0 miles
Clouds Mostly Cloudy 3400 ft
Overcast 4300 ft
Windchill 15 °F
Dew Point 12 °F
Humidity 53%
Rainfall 0.00 in
Snow Depth Not available.
UV 1 out of 12
Pollen 3.20 out of 12
Air Quality Not available.
Flu Activity Not available.
METAR KDET 272053Z AUTO 01014G21KT 7SM BKN034 OVC043 M03/M11 A3004 RMK AO2 SNE1954 SLP181 P0000 60000 T10281111 53003

More Conditions Fewer Conditions

10-Day Weather Forecast

Almanac

Astronomy

Mar. 27, 2015 Rise Set
Actual Time
Civil Twilight
Nautical Twilight
Astronomical Twilight
Moon
Length of Visible Light
Length of Day
Tomorrow will be .
, % of the Moon is Illuminated

Today's Extremes

State Highs State Lows

Community

WunderPhotos

Upload Photos

1,808,826 photos uploaded!

WunderBlogs® & News

Nearby

Air Quality

  Air Quality AQ Index Pollutant
Not available.

Snow Depth

Station Depth Elevation

Earthquake Activity

City Distance Mag. Time & Date
Minimum magnitude displayed is 2.5.

Coastal Water Temperatures

Place Temperature

Stations

Nearby Weather Stations

Station Location Temp. Windchill Dew Point Humidity Wind Precip. Elev Updated Type